DLH4EJ LIMC-EDDF
Flight info
| Callsign | DLH4EJ |
|---|---|
| Flight time | 0h 45m |
| Altitude | 32000 |
| Route | PEPAG DCT ABESI N851 UTAVO DCT ROLSA DCT LADOL T163 EMPAX EMPAX5B |
| Aircraft | A346/H-SDE2E3FGHIJ3J4J5M1RWXY/LB1D1 |
Departure
| Time | 2026-05-06 13:09 |
|---|---|
| Airport | Milan Malpensa International Airport (LIMC) |
Arrival
| Time | 2026-05-06 13:55 |
|---|---|
| Airport | Frankfurt Main Airport (EDDF) |
| Time | Latitude | Longitude | Altitude | Speed | Heading |
|---|---|---|---|---|---|
| 2026-05-06 12:37 | 45.62363 | 8.71724 | 749 ft | 0 kts | 349° |
| 2026-05-06 12:53 | 45.62356 | 8.71726 | 749 ft | 4 kts | 341° |
| 2026-05-06 12:54 | 45.62336 | 8.71733 | 748 ft | 4 kts | 354° |
| 2026-05-06 12:54 | 45.62319 | 8.71730 | 745 ft | 4 kts | 32° |
| 2026-05-06 12:54 | 45.62309 | 8.71714 | 745 ft | 4 kts | 75° |
| 2026-05-06 12:54 | 45.62310 | 8.71718 | 745 ft | 4 kts | 78° |
| 2026-05-06 12:55 | 45.62316 | 8.71755 | 745 ft | 4 kts | 78° |
| 2026-05-06 12:55 | 45.62320 | 8.71790 | 746 ft | 2 kts | 79° |
| 2026-05-06 12:55 | 45.62321 | 8.71792 | 746 ft | 0 kts | 79° |
| 2026-05-06 12:58 | 45.62321 | 8.71794 | 746 ft | 1 kts | 79° |
| 2026-05-06 12:58 | 45.62324 | 8.71815 | 746 ft | 4 kts | 79° |
| 2026-05-06 12:59 | 45.62331 | 8.71872 | 747 ft | 7 kts | 79° |
| 2026-05-06 12:59 | 45.62332 | 8.71879 | 747 ft | 0 kts | 79° |
| 2026-05-06 13:00 | 45.62332 | 8.71884 | 745 ft | 3 kts | 91° |
| 2026-05-06 13:00 | 45.62303 | 8.71920 | 747 ft | 8 kts | 167° |
| 2026-05-06 13:00 | 45.62203 | 8.71953 | 747 ft | 20 kts | 168° |
| 2026-05-06 13:01 | 45.62091 | 8.71984 | 747 ft | 22 kts | 169° |
| 2026-05-06 13:01 | 45.61986 | 8.72013 | 745 ft | 23 kts | 167° |
| 2026-05-06 13:01 | 45.61840 | 8.72055 | 746 ft | 22 kts | 169° |
| 2026-05-06 13:02 | 45.61682 | 8.72098 | 748 ft | 24 kts | 169° |
| 2026-05-06 13:02 | 45.61525 | 8.72141 | 747 ft | 22 kts | 169° |
| 2026-05-06 13:02 | 45.61395 | 8.72177 | 749 ft | 11 kts | 169° |
| 2026-05-06 13:02 | 45.61361 | 8.72187 | 746 ft | 7 kts | 169° |
| 2026-05-06 13:03 | 45.61279 | 8.72209 | 747 ft | 15 kts | 170° |
| 2026-05-06 13:03 | 45.61166 | 8.72240 | 746 ft | 18 kts | 168° |
| 2026-05-06 13:03 | 45.61031 | 8.72279 | 746 ft | 21 kts | 168° |
| 2026-05-06 13:03 | 45.60881 | 8.72320 | 746 ft | 23 kts | 170° |
| 2026-05-06 13:04 | 45.60730 | 8.72358 | 748 ft | 23 kts | 170° |
| 2026-05-06 13:04 | 45.60640 | 8.72489 | 747 ft | 20 kts | 95° |
| 2026-05-06 13:04 | 45.60621 | 8.72702 | 750 ft | 23 kts | 97° |
| 2026-05-06 13:04 | 45.60604 | 8.72942 | 748 ft | 25 kts | 95° |
| 2026-05-06 13:05 | 45.60588 | 8.73150 | 750 ft | 18 kts | 91° |
| 2026-05-06 13:05 | 45.60664 | 8.73287 | 745 ft | 20 kts | 26° |
| 2026-05-06 13:05 | 45.60803 | 8.73367 | 747 ft | 23 kts | 22° |
| 2026-05-06 13:05 | 45.60935 | 8.73395 | 748 ft | 19 kts | 348° |
| 2026-05-06 13:06 | 45.61071 | 8.73353 | 748 ft | 21 kts | 346° |
| 2026-05-06 13:06 | 45.61223 | 8.73314 | 749 ft | 23 kts | 351° |
| 2026-05-06 13:06 | 45.61386 | 8.73271 | 746 ft | 25 kts | 349° |
| 2026-05-06 13:06 | 45.61534 | 8.73230 | 746 ft | 21 kts | 350° |
| 2026-05-06 13:07 | 45.61607 | 8.73249 | 745 ft | 5 kts | 72° |
| 2026-05-06 13:07 | 45.61620 | 8.73312 | 746 ft | 8 kts | 73° |
| 2026-05-06 13:07 | 45.61636 | 8.73408 | 748 ft | 11 kts | 79° |
| 2026-05-06 13:07 | 45.61624 | 8.73451 | 746 ft | 6 kts | 123° |
| 2026-05-06 13:08 | 45.61595 | 8.73529 | 746 ft | 12 kts | 108° |
| 2026-05-06 13:08 | 45.61592 | 8.73667 | 744 ft | 14 kts | 81° |
| 2026-05-06 13:08 | 45.61614 | 8.73725 | 743 ft | 5 kts | 357° |
| 2026-05-06 13:08 | 45.61664 | 8.73720 | 747 ft | 13 kts | 355° |
| 2026-05-06 13:09 | 45.61991 | 8.73632 | 745 ft | 85 kts | 349° |
| 2026-05-06 13:09 | 45.62791 | 8.73412 | 745 ft | 147 kts | 349° |
| 2026-05-06 13:09 | 45.63933 | 8.73099 | 1049 ft | 175 kts | 348° |
| 2026-05-06 13:09 | 45.65141 | 8.72858 | 1818 ft | 179 kts | 359° |
| 2026-05-06 13:10 | 45.66418 | 8.72860 | 2498 ft | 187 kts | 3° |
| 2026-05-06 13:10 | 45.67737 | 8.72881 | 3173 ft | 192 kts | 0° |
| 2026-05-06 13:10 | 45.69077 | 8.72845 | 3890 ft | 194 kts | 357° |
| 2026-05-06 13:10 | 45.70457 | 8.72723 | 4482 ft | 205 kts | 355° |
| 2026-05-06 13:11 | 45.71929 | 8.72863 | 4966 ft | 222 kts | 22° |
| 2026-05-06 13:11 | 45.73114 | 8.74327 | 5345 ft | 235 kts | 59° |
| 2026-05-06 13:11 | 45.73847 | 8.76482 | 5734 ft | 247 kts | 70° |
| 2026-05-06 13:11 | 45.74444 | 8.78822 | 6379 ft | 251 kts | 82° |
| 2026-05-06 13:12 | 45.74534 | 8.81298 | 7121 ft | 250 kts | 92° |
| 2026-05-06 13:12 | 45.74951 | 8.83721 | 7797 ft | 261 kts | 58° |
| 2026-05-06 13:12 | 45.76301 | 8.85432 | 8686 ft | 263 kts | 26° |
| 2026-05-06 13:12 | 45.77986 | 8.86468 | 9637 ft | 266 kts | 22° |
| 2026-05-06 13:13 | 45.79688 | 8.87606 | 10374 ft | 272 kts | 27° |
| 2026-05-06 13:13 | 45.81353 | 8.88963 | 11106 ft | 277 kts | 32° |
| 2026-05-06 13:13 | 45.82980 | 8.90487 | 11865 ft | 281 kts | 35° |
| 2026-05-06 13:13 | 45.84565 | 8.92096 | 12690 ft | 284 kts | 37° |
| 2026-05-06 13:14 | 45.86168 | 8.93801 | 13531 ft | 289 kts | 38° |
| 2026-05-06 13:14 | 45.87788 | 8.95558 | 14269 ft | 294 kts | 38° |
| 2026-05-06 13:14 | 45.89426 | 8.97346 | 15040 ft | 299 kts | 38° |
| 2026-05-06 13:14 | 45.91116 | 8.99195 | 15634 ft | 312 kts | 38° |
| 2026-05-06 13:15 | 45.92885 | 9.01133 | 16111 ft | 329 kts | 38° |
| 2026-05-06 13:15 | 45.94752 | 9.03182 | 16537 ft | 347 kts | 38° |
| 2026-05-06 13:15 | 45.96746 | 9.05298 | 16956 ft | 366 kts | 32° |
| 2026-05-06 13:15 | 45.99161 | 9.06698 | 17305 ft | 384 kts | 10° |
| 2026-05-06 13:16 | 46.01864 | 9.06814 | 17692 ft | 398 kts | 352° |
| 2026-05-06 13:16 | 46.04664 | 9.06314 | 18049 ft | 414 kts | 350° |
| 2026-05-06 13:16 | 46.07578 | 9.05735 | 18355 ft | 431 kts | 350° |
| 2026-05-06 13:16 | 46.10570 | 9.05178 | 18758 ft | 444 kts | 351° |
| 2026-05-06 13:17 | 46.13672 | 9.04646 | 19326 ft | 450 kts | 351° |
| 2026-05-06 13:17 | 46.16806 | 9.04140 | 20102 ft | 455 kts | 352° |
| 2026-05-06 13:17 | 46.19971 | 9.03706 | 20815 ft | 460 kts | 352° |
| 2026-05-06 13:17 | 46.23182 | 9.03293 | 21427 ft | 466 kts | 352° |
| 2026-05-06 13:18 | 46.26445 | 9.02871 | 22069 ft | 471 kts | 352° |
| 2026-05-06 13:18 | 46.29736 | 9.02438 | 22667 ft | 476 kts | 351° |
| 2026-05-06 13:18 | 46.33024 | 9.02000 | 23283 ft | 481 kts | 351° |
| 2026-05-06 13:18 | 46.36400 | 9.01547 | 23828 ft | 486 kts | 351° |
| 2026-05-06 13:19 | 46.39788 | 9.01092 | 24277 ft | 491 kts | 351° |
| 2026-05-06 13:19 | 46.43211 | 9.00627 | 24764 ft | 496 kts | 351° |
| 2026-05-06 13:19 | 46.46667 | 9.00166 | 25304 ft | 500 kts | 351° |
| 2026-05-06 13:19 | 46.50153 | 8.99700 | 25884 ft | 505 kts | 351° |
| 2026-05-06 13:20 | 46.53628 | 8.99236 | 26328 ft | 511 kts | 350° |
| 2026-05-06 13:20 | 46.57234 | 8.98752 | 26784 ft | 515 kts | 350° |
| 2026-05-06 13:20 | 46.60767 | 8.98276 | 27279 ft | 519 kts | 350° |
| 2026-05-06 13:20 | 46.64388 | 8.97786 | 27801 ft | 523 kts | 350° |
| 2026-05-06 13:21 | 46.68018 | 8.97297 | 28572 ft | 521 kts | 349° |
| 2026-05-06 13:21 | 46.71632 | 8.96810 | 29335 ft | 520 kts | 349° |
| 2026-05-06 13:21 | 46.75235 | 8.96321 | 30067 ft | 520 kts | 349° |
| 2026-05-06 13:21 | 46.78838 | 8.95820 | 30660 ft | 521 kts | 349° |
| 2026-05-06 13:22 | 46.82454 | 8.95323 | 31158 ft | 523 kts | 349° |
| 2026-05-06 13:22 | 46.86065 | 8.94830 | 31688 ft | 524 kts | 350° |
| 2026-05-06 13:22 | 46.89695 | 8.94336 | 31865 ft | 525 kts | 349° |
| 2026-05-06 13:23 | 46.96980 | 8.93340 | 31859 ft | 526 kts | 349° |
| 2026-05-06 13:23 | 47.04268 | 8.92337 | 31884 ft | 526 kts | 349° |
| 2026-05-06 13:24 | 47.11550 | 8.91330 | 31873 ft | 524 kts | 350° |
| 2026-05-06 13:24 | 47.18814 | 8.90324 | 31869 ft | 524 kts | 350° |
| 2026-05-06 13:25 | 47.26085 | 8.89345 | 31864 ft | 525 kts | 351° |
| 2026-05-06 13:25 | 47.33363 | 8.89179 | 31868 ft | 528 kts | 358° |
| 2026-05-06 13:26 | 47.40733 | 8.89703 | 31869 ft | 528 kts | 359° |
| 2026-05-06 13:26 | 47.48087 | 8.90286 | 31889 ft | 528 kts | 359° |
| 2026-05-06 13:27 | 47.55438 | 8.90839 | 31872 ft | 528 kts | 359° |
| 2026-05-06 13:27 | 47.62789 | 8.91380 | 31858 ft | 528 kts | 359° |
| 2026-05-06 13:28 | 47.70083 | 8.91910 | 31845 ft | 528 kts | 359° |
| 2026-05-06 13:28 | 47.77437 | 8.92447 | 31839 ft | 527 kts | 359° |
| 2026-05-06 13:29 | 47.84772 | 8.92986 | 31834 ft | 527 kts | 359° |
| 2026-05-06 13:29 | 47.92124 | 8.93525 | 31829 ft | 527 kts | 360° |
| 2026-05-06 13:30 | 47.99403 | 8.94059 | 31859 ft | 526 kts | 0° |
| 2026-05-06 13:30 | 48.06688 | 8.94588 | 31828 ft | 524 kts | 0° |
| 2026-05-06 13:31 | 48.13974 | 8.95129 | 31822 ft | 522 kts | 0° |
| 2026-05-06 13:31 | 48.21221 | 8.95973 | 31819 ft | 522 kts | 4° |
| 2026-05-06 13:32 | 48.28418 | 8.97091 | 31781 ft | 522 kts | 4° |
| 2026-05-06 13:32 | 48.32038 | 8.97655 | 31410 ft | 522 kts | 4° |
| 2026-05-06 13:32 | 48.35650 | 8.98207 | 30938 ft | 521 kts | 4° |
| 2026-05-06 13:32 | 48.39252 | 8.98753 | 30370 ft | 519 kts | 5° |
| 2026-05-06 13:33 | 48.42846 | 8.99297 | 29728 ft | 518 kts | 5° |
| 2026-05-06 13:33 | 48.46431 | 8.99844 | 29027 ft | 516 kts | 5° |
| 2026-05-06 13:33 | 48.50015 | 9.00395 | 28361 ft | 517 kts | 5° |
| 2026-05-06 13:33 | 48.53534 | 9.00936 | 27647 ft | 516 kts | 5° |
| 2026-05-06 13:34 | 48.57106 | 9.01483 | 26984 ft | 512 kts | 5° |
| 2026-05-06 13:34 | 48.60615 | 9.02020 | 26583 ft | 502 kts | 5° |
| 2026-05-06 13:34 | 48.64059 | 9.02652 | 26162 ft | 493 kts | 7° |
| 2026-05-06 13:34 | 48.67431 | 9.03419 | 25721 ft | 486 kts | 8° |
| 2026-05-06 13:35 | 48.70759 | 9.04220 | 25251 ft | 478 kts | 9° |
| 2026-05-06 13:35 | 48.74028 | 9.05018 | 24845 ft | 471 kts | 8° |
| 2026-05-06 13:35 | 48.77211 | 9.05791 | 24422 ft | 466 kts | 8° |
| 2026-05-06 13:35 | 48.80419 | 9.06560 | 23983 ft | 460 kts | 8° |
| 2026-05-06 13:36 | 48.83572 | 9.07314 | 23537 ft | 455 kts | 8° |
| 2026-05-06 13:36 | 48.86696 | 9.08060 | 23050 ft | 451 kts | 8° |
| 2026-05-06 13:36 | 48.89795 | 9.08664 | 22550 ft | 446 kts | 5° |
| 2026-05-06 13:36 | 48.92864 | 9.09126 | 22075 ft | 441 kts | 5° |
| 2026-05-06 13:37 | 48.95881 | 9.09543 | 21605 ft | 437 kts | 4° |
| 2026-05-06 13:37 | 48.98918 | 9.09962 | 21114 ft | 434 kts | 4° |
| 2026-05-06 13:37 | 49.01916 | 9.10382 | 20622 ft | 431 kts | 4° |
| 2026-05-06 13:37 | 49.04897 | 9.10806 | 20078 ft | 429 kts | 4° |
| 2026-05-06 13:38 | 49.07866 | 9.11230 | 19522 ft | 427 kts | 4° |
| 2026-05-06 13:38 | 49.10780 | 9.11646 | 19018 ft | 425 kts | 4° |
| 2026-05-06 13:38 | 49.13724 | 9.12066 | 18489 ft | 424 kts | 4° |
| 2026-05-06 13:38 | 49.16674 | 9.12487 | 17937 ft | 423 kts | 4° |
| 2026-05-06 13:39 | 49.19604 | 9.12904 | 17364 ft | 421 kts | 4° |
| 2026-05-06 13:39 | 49.22511 | 9.13319 | 16817 ft | 418 kts | 5° |
| 2026-05-06 13:39 | 49.25396 | 9.13733 | 16286 ft | 415 kts | 5° |
| 2026-05-06 13:39 | 49.28256 | 9.14279 | 15751 ft | 412 kts | 8° |
| 2026-05-06 13:40 | 49.31073 | 9.15100 | 15211 ft | 410 kts | 12° |
| 2026-05-06 13:40 | 49.33848 | 9.16061 | 14652 ft | 408 kts | 12° |
| 2026-05-06 13:40 | 49.36603 | 9.17049 | 14118 ft | 406 kts | 13° |
| 2026-05-06 13:40 | 49.39348 | 9.18037 | 13566 ft | 404 kts | 12° |
| 2026-05-06 13:41 | 49.42082 | 9.19016 | 12946 ft | 401 kts | 11° |
| 2026-05-06 13:41 | 49.44803 | 9.19438 | 12343 ft | 396 kts | 355° |
| 2026-05-06 13:41 | 49.47493 | 9.18759 | 11870 ft | 388 kts | 345° |
| 2026-05-06 13:41 | 49.50091 | 9.17796 | 11488 ft | 380 kts | 344° |
| 2026-05-06 13:42 | 49.52633 | 9.16810 | 11103 ft | 373 kts | 344° |
| 2026-05-06 13:42 | 49.55125 | 9.15829 | 10739 ft | 365 kts | 343° |
| 2026-05-06 13:42 | 49.57546 | 9.14886 | 10492 ft | 355 kts | 343° |
| 2026-05-06 13:42 | 49.59909 | 9.13977 | 10237 ft | 345 kts | 344° |
| 2026-05-06 13:43 | 49.62206 | 9.13094 | 9990 ft | 336 kts | 343° |
| 2026-05-06 13:43 | 49.64446 | 9.12237 | 9799 ft | 325 kts | 343° |
| 2026-05-06 13:43 | 49.66590 | 9.11427 | 9782 ft | 309 kts | 343° |
| 2026-05-06 13:43 | 49.68613 | 9.10678 | 9775 ft | 295 kts | 343° |
| 2026-05-06 13:44 | 49.70607 | 9.09947 | 9779 ft | 294 kts | 343° |
| 2026-05-06 13:44 | 49.72597 | 9.09213 | 9779 ft | 294 kts | 343° |
| 2026-05-06 13:44 | 49.74586 | 9.08473 | 9781 ft | 294 kts | 343° |
| 2026-05-06 13:44 | 49.76571 | 9.07735 | 9779 ft | 294 kts | 343° |
| 2026-05-06 13:45 | 49.78553 | 9.07004 | 9685 ft | 289 kts | 343° |
| 2026-05-06 13:45 | 49.82469 | 9.05547 | 8842 ft | 289 kts | 344° |
| 2026-05-06 13:45 | 49.84427 | 9.04807 | 8384 ft | 288 kts | 343° |
| 2026-05-06 13:46 | 49.86346 | 9.04086 | 7976 ft | 287 kts | 343° |
| 2026-05-06 13:46 | 49.88291 | 9.03359 | 7536 ft | 286 kts | 343° |
| 2026-05-06 13:46 | 49.90221 | 9.02633 | 7156 ft | 285 kts | 343° |
| 2026-05-06 13:46 | 49.92141 | 9.01912 | 6763 ft | 283 kts | 343° |
| 2026-05-06 13:47 | 49.94052 | 9.01193 | 6388 ft | 281 kts | 343° |
| 2026-05-06 13:47 | 49.95922 | 9.00493 | 6044 ft | 270 kts | 343° |
| 2026-05-06 13:47 | 49.97113 | 9.00060 | 5855 ft | 261 kts | 343° |
| 2026-05-06 13:47 | 49.98860 | 8.99424 | 5511 ft | 255 kts | 343° |
| 2026-05-06 13:48 | 50.00591 | 8.98786 | 5308 ft | 256 kts | 343° |
| 2026-05-06 13:48 | 50.02315 | 8.98142 | 5061 ft | 254 kts | 343° |
| 2026-05-06 13:48 | 50.04032 | 8.97503 | 4872 ft | 254 kts | 343° |
| 2026-05-06 13:48 | 50.05757 | 8.96864 | 4656 ft | 254 kts | 343° |
| 2026-05-06 13:49 | 50.07471 | 8.96228 | 4455 ft | 252 kts | 343° |
| 2026-05-06 13:49 | 50.09175 | 8.95556 | 4269 ft | 251 kts | 338° |
| 2026-05-06 13:49 | 50.10595 | 8.94085 | 4032 ft | 242 kts | 305° |
| 2026-05-06 13:49 | 50.11261 | 8.91822 | 3987 ft | 226 kts | 275° |
| 2026-05-06 13:50 | 50.11194 | 8.89487 | 3991 ft | 208 kts | 256° |
| 2026-05-06 13:50 | 50.10812 | 8.87351 | 4018 ft | 201 kts | 251° |
| 2026-05-06 13:50 | 50.10387 | 8.85340 | 3935 ft | 191 kts | 250° |
| 2026-05-06 13:50 | 50.09942 | 8.83404 | 3673 ft | 188 kts | 249° |
| 2026-05-06 13:51 | 50.09491 | 8.81503 | 3455 ft | 183 kts | 249° |
| 2026-05-06 13:51 | 50.09049 | 8.79673 | 3203 ft | 177 kts | 249° |
| 2026-05-06 13:51 | 50.08622 | 8.77903 | 2977 ft | 171 kts | 248° |
| 2026-05-06 13:51 | 50.08218 | 8.76227 | 2769 ft | 164 kts | 248° |
| 2026-05-06 13:52 | 50.07816 | 8.74564 | 2536 ft | 162 kts | 248° |
| 2026-05-06 13:52 | 50.07422 | 8.72939 | 2338 ft | 163 kts | 249° |
| 2026-05-06 13:52 | 50.07039 | 8.71341 | 2079 ft | 150 kts | 249° |
| 2026-05-06 13:52 | 50.06678 | 8.69835 | 1888 ft | 146 kts | 249° |
| 2026-05-06 13:53 | 50.06322 | 8.68350 | 1727 ft | 146 kts | 249° |
| 2026-05-06 13:53 | 50.05968 | 8.66865 | 1550 ft | 145 kts | 248° |
| 2026-05-06 13:53 | 50.05619 | 8.65409 | 1328 ft | 145 kts | 248° |
| 2026-05-06 13:53 | 50.05280 | 8.63922 | 1111 ft | 145 kts | 247° |
| 2026-05-06 13:54 | 50.04915 | 8.62464 | 884 ft | 145 kts | 247° |
| 2026-05-06 13:54 | 50.04568 | 8.60994 | 659 ft | 144 kts | 248° |
| 2026-05-06 13:54 | 50.04221 | 8.59535 | 533 ft | 142 kts | 248° |
| 2026-05-06 13:54 | 50.03875 | 8.58105 | 381 ft | 137 kts | 249° |
| 2026-05-06 13:55 | 50.03592 | 8.56926 | 367 ft | 92 kts | 250° |
| 2026-05-06 13:55 | 50.03446 | 8.56284 | 365 ft | 40 kts | 260° |
| 2026-05-06 13:55 | 50.03461 | 8.55984 | 361 ft | 17 kts | 272° |
| 2026-05-06 13:55 | 50.03469 | 8.55794 | 358 ft | 8 kts | 276° |
| 2026-05-06 13:56 | 50.03472 | 8.55760 | 356 ft | 4 kts | 277° |
| 2026-05-06 13:56 | 50.03472 | 8.55755 | 355 ft | 0 kts | 277° |
| 2026-05-06 13:56 | 50.03472 | 8.55753 | 355 ft | 1 kts | 277° |
| 2026-05-06 13:57 | 50.03474 | 8.55726 | 354 ft | 6 kts | 277° |
| 2026-05-06 13:57 | 50.03487 | 8.55585 | 354 ft | 17 kts | 278° |
| 2026-05-06 13:57 | 50.03473 | 8.55393 | 360 ft | 20 kts | 249° |
| 2026-05-06 13:57 | 50.03420 | 8.55174 | 357 ft | 23 kts | 250° |
| 2026-05-06 13:58 | 50.03361 | 8.54925 | 359 ft | 26 kts | 249° |
| 2026-05-06 13:58 | 50.03299 | 8.54666 | 355 ft | 21 kts | 249° |
| 2026-05-06 13:58 | 50.03273 | 8.54535 | 351 ft | 10 kts | 282° |
| 2026-05-06 13:58 | 50.03319 | 8.54474 | 356 ft | 5 kts | 345° |
| 2026-05-06 13:59 | 50.03349 | 8.54459 | 357 ft | 0 kts | 340° |